Time;durP1;ratioP1;P1;durP2;ratioP2;P2;SDS_P1;SDS_P2;PMS_P1;PMS_P2;Temp;Humidity;BMP_temperature;BMP_pressure;BME280_temperature;BME280_humidity;BME280_pressure;Samples;Min_cycle;Max_cycle;Signal;HPM_P1;HPM_P2
2021/10/11 00:01:00;;;;;;;8.00;2.97;;;10.80;99.90;;;;;;6181548;23;20021;-88
2021/10/11 00:03:38;;;;;;;13.27;3.83;;;10.80;99.90;;;;;;6205736;23;20016;-89
2021/10/11 00:06:40;;;;;;;11.95;3.97;;;10.70;99.90;;;;;;6181024;23;20131;-89
2021/10/11 00:09:37;;;;;;;11.93;3.28;;;11.00;99.90;;;;;;6185742;23;20024;-89
2021/10/11 00:12:14;;;;;;;14.07;3.00;;;10.60;99.90;;;;;;6206776;23;20026;-88
2021/10/11 00:14:57;;;;;;;16.63;3.58;;;10.60;99.90;;;;;;6233600;23;20024;-88
2021/10/11 00:18:10;;;;;;;11.88;4.32;;;10.60;99.90;;;;;;6212193;23;20017;-87
2021/10/11 00:21:51;;;;;;;9.32;5.45;;;10.60;99.90;;;;;;6191262;23;20021;-87
2021/10/11 00:25:24;;;;;;;12.88;3.20;;;9.30;99.90;;;;;;6211141;23;20020;-89
2021/10/11 00:28:30;;;;;;;18.75;3.80;;;10.10;99.90;;;;;;6199694;23;20020;-88
2021/10/11 00:31:54;;;;;;;13.73;3.80;;;10.40;99.90;;;;;;6149367;23;20028;-87
2021/10/11 00:35:28;;;;;;;16.45;4.18;;;10.40;99.90;;;;;;6203945;23;20023;-86
2021/10/11 00:38:35;;;;;;;11.98;3.40;;;10.40;99.90;;;;;;6175398;23;20075;-88
2021/10/11 00:43:04;;;;;;;21.25;3.97;;;10.60;99.90;;;;;;6190239;23;20020;-88
2021/10/11 00:45:48;;;;;;;8.07;3.35;;;10.40;99.90;;;;;;6182419;23;20027;-86
2021/10/11 00:49:33;;;;;;;10.88;3.47;;;10.40;99.90;;;;;;6188191;23;20020;-87
2021/10/11 00:55:56;;;;;;;12.02;3.63;;;9.60;99.90;;;;;;6214790;23;20020;-88
2021/10/11 00:58:36;;;;;;;10.68;3.58;;;10.50;99.90;;;;;;6187859;23;20024;-88
2021/10/11 01:01:31;;;;;;;;;;;;;;;;;;;;;
2021/10/11 01:04:17;;;;;;;12.98;5.60;;;10.60;99.90;;;;;;6214467;23;20441;-88
2021/10/11 01:07:02;;;;;;;7.55;3.65;;;10.50;99.90;;;;;;6239562;22;20026;-89
2021/10/11 01:09:43;;;;;;;12.55;3.22;;;10.50;99.90;;;;;;6209886;23;20022;-89
2021/10/11 01:16:14;;;;;;;9.63;2.78;;;10.60;99.90;;;;;;6251129;23;19919;-89
2021/10/11 01:19:04;;;;;;;15.18;3.80;;;10.60;99.90;;;;;;6232978;23;20019;-87
2021/10/11 01:22:07;;;;;;;7.03;3.47;;;10.50;99.90;;;;;;6218331;23;20043;-88
2021/10/11 01:24:48;;;;;;;15.75;3.75;;;10.50;99.90;;;;;;6210158;23;20018;-86
2021/10/11 01:27:38;;;;;;;12.57;3.80;;;11.50;99.90;;;;;;6186046;23;20034;-88
2021/10/11 01:30:52;;;;;;;11.57;4.68;;;10.60;99.90;;;;;;6183960;23;20024;-88
2021/10/11 01:33:51;;;;;;;14.60;6.07;;;10.50;99.90;;;;;;6238789;23;20026;-90
2021/10/11 01:36:32;;;;;;;19.73;4.57;;;9.40;99.90;;;;;;6208341;23;20018;-88
2021/10/11 01:39:53;;;;;;;15.25;4.53;;;10.50;99.90;;;;;;6192802;23;20485;-88
2021/10/11 01:46:37;;;;;;;19.00;4.07;;;11.00;99.90;;;;;;6235292;23;20020;-88
2021/10/11 01:49:39;;;;;;;;;;;;;;;;;;;;;
2021/10/11 01:53:10;;;;;;;18.55;4.03;;;10.40;99.90;;;;;;6235497;23;20024;-86
2021/10/11 01:56:42;;;;;;;17.58;4.20;;;10.40;99.90;;;;;;6222860;23;20007;-87
2021/10/11 02:00:20;;;;;;;20.45;5.90;;;10.60;99.90;;;;;;6199394;23;20012;-87
2021/10/11 02:03:36;;;;;;;14.60;4.72;;;9.90;99.90;;;;;;6196035;23;20020;-87
2021/10/11 02:06:33;;;;;;;16.85;4.63;;;10.30;99.90;;;;;;6191625;23;20020;-87
2021/10/11 02:09:48;;;;;;;12.13;4.68;;;10.40;99.90;;;;;;6200615;23;20010;-87
2021/10/11 02:13:36;;;;;;;19.08;4.35;;;10.20;99.90;;;;;;6236220;23;20016;-87
2021/10/11 02:20:08;;;;;;;14.80;4.82;;;10.30;99.90;;;;;;6145113;23;20509;-87
2021/10/11 02:23:50;;;;;;;12.23;3.63;;;10.10;99.90;;;;;;6143890;23;20020;-86
2021/10/11 02:26:57;;;;;;;17.15;3.90;;;10.20;99.90;;;;;;6098535;23;20044;-87
2021/10/11 02:33:52;;;;;;;10.90;4.55;;;9.20;99.90;;;;;;6166754;23;20006;-87
2021/10/11 02:37:47;;;;;;;16.17;4.65;;;9.70;99.90;;;;;;6105036;23;20059;-87
2021/10/11 02:41:51;;;;;;;23.02;5.78;;;10.00;99.90;;;;;;6136006;23;20030;-87
2021/10/11 02:45:38;;;;;;;18.42;4.40;;;10.10;99.90;;;;;;6123397;23;20025;-88
2021/10/11 02:53:15;;;;;;;10.50;3.47;;;8.70;99.90;;;;;;6163145;23;20150;-88
2021/10/11 02:56:56;;;;;;;11.93;5.22;;;8.50;99.90;;;;;;6135499;23;20022;-86
2021/10/11 03:00:40;;;;;;;15.25;3.60;;;9.80;99.90;;;;;;6038732;23;20561;-87
2021/10/11 03:04:48;;;;;;;10.38;4.10;;;9.50;99.90;;;;;;5992740;24;20029;-88
2021/10/11 03:24:37;;;;;;;13.00;5.75;;;8.70;99.90;;;;;;5968799;24;20040;-87
2021/10/11 03:28:03;;;;;;;14.50;3.75;;;9.90;99.90;;;;;;5980282;23;20020;-87
2021/10/11 03:31:32;;;;;;;16.02;4.30;;;9.50;99.90;;;;;;6047958;23;20036;-87
2021/10/11 03:35:31;;;;;;;16.35;4.13;;;9.40;99.90;;;;;;6058115;23;20060;-88
2021/10/11 03:39:14;;;;;;;14.98;5.78;;;9.40;99.90;;;;;;6216216;23;20048;-88
2021/10/11 03:41:51;;;;;;;9.90;3.55;;;9.40;99.90;;;;;;6185903;23;20016;-88
2021/10/11 03:45:09;;;;;;;11.18;4.53;;;9.30;99.90;;;;;;6216114;23;20034;-87
2021/10/11 03:53:22;;;;;;;23.77;5.63;;;9.20;99.90;;;;;;6132549;23;20015;-87
2021/10/11 03:56:30;;;;;;;19.52;4.93;;;9.20;99.90;;;;;;6222127;23;20028;-87
2021/10/11 04:00:49;;;;;;;8.38;4.05;;;10.40;99.90;;;;;;6218909;23;20026;-88
2021/10/11 04:04:20;;;;;;;13.57;4.55;;;9.30;99.90;;;;;;6222253;23;20004;-87
2021/10/11 04:16:54;;;;;;;17.48;4.35;;;9.20;99.90;;;;;;6224910;23;20034;-86
2021/10/11 04:24:14;;;;;;;11.05;3.45;;;9.10;99.90;;;;;;6172496;23;20030;-87
2021/10/11 04:32:51;;;;;;;15.43;3.40;;;10.30;99.90;;;;;;6171770;23;20048;-87
2021/10/11 04:36:09;;;;;;;14.32;5.68;;;8.20;99.90;;;;;;6219034;23;20024;-88
2021/10/11 04:39:00;;;;;;;15.55;4.53;;;8.80;99.90;;;;;;6215194;23;20024;-87
2021/10/11 04:41:34;;;;;;;13.25;3.92;;;8.90;99.90;;;;;;6210622;23;20016;-88
2021/10/11 04:48:53;;;;;;;;;;;;;;;;;;;;;
2021/10/11 04:51:46;;;;;;;;;;;8.80;99.90;;;;;;6153640;23;20024;-89
2021/10/11 04:55:32;;;;;;;13.77;5.88;;;7.50;99.90;;;;;;6124994;23;19923;-87
2021/10/11 04:58:26;;;;;;;13.20;4.47;;;9.70;99.90;;;;;;6064463;23;20036;-86
2021/10/11 05:02:03;;;;;;;11.32;4.30;;;8.70;99.90;;;;;;6072029;23;20022;-87
2021/10/11 05:09:25;;;;;;;13.45;4.95;;;8.60;99.90;;;;;;5869499;24;20030;-86
2021/10/11 05:13:17;;;;;;;8.82;3.58;;;8.60;99.90;;;;;;5941412;24;20438;-87
2021/10/11 05:21:33;;;;;;;;;;;9.60;99.90;;;;;;6005004;24;20020;-88
2021/10/11 05:29:28;;;;;;;24.05;7.20;;;8.60;99.90;;;;;;5970843;23;20035;-86
2021/10/11 05:43:32;;;;;;;13.02;5.93;;;8.30;99.90;;;;;;6147056;23;20013;-90
2021/10/11 05:47:58;;;;;;;;;;;;;;;;;;;;;
2021/10/11 06:02:04;;;;;;;15.50;5.80;;;8.60;99.90;;;;;;5934337;24;21097;-90
2021/10/11 06:23:22;;;;;;;16.23;6.00;;;8.60;99.90;;;;;;6212969;23;20029;-82
2021/10/11 06:32:28;;;;;;;13.82;6.57;;;8.90;99.90;;;;;;6117028;23;20022;-82
2021/10/11 06:35:48;;;;;;;28.58;7.65;;;7.70;99.90;;;;;;6233258;23;20009;-86
2021/10/11 07:08:35;;;;;;;17.67;5.93;;;9.20;99.90;;;;;;6191748;23;20034;-79
2021/10/11 07:12:04;;;;;;;19.00;6.40;;;9.30;99.90;;;;;;6218596;23;20026;-85
2021/10/11 07:30:01;;;;;;;18.73;7.00;;;9.50;99.90;;;;;;5956534;24;20025;-88
2021/10/11 07:32:39;;;;;;;29.10;7.22;;;9.50;99.90;;;;;;5963625;24;20039;-84
2021/10/11 07:57:49;;;;;;;;;;;;;;;;;;;;;
2021/10/11 08:01:36;;;;;;;;;;;;;;;;;;;;;
2021/10/11 08:40:28;;;;;;;18.23;4.45;;;11.20;99.90;;;;;;5924106;24;19997;-85
2021/10/11 08:53:09;;;;;;;13.00;3.40;;;11.80;99.90;;;;;;5867426;24;20035;-86
2021/10/11 09:40:09;;;;;;;13.90;3.15;;;12.50;99.90;;;;;;6138822;23;20016;-86
2021/10/11 09:44:42;;;;;;;9.27;2.75;;;11.90;99.90;;;;;;6149299;23;20020;-86
2021/10/11 09:48:37;;;;;;;15.50;3.08;;;12.80;99.90;;;;;;6247073;22;20019;-88
2021/10/11 09:51:39;;;;;;;;;;;;;;;;;;;;;
2021/10/11 10:00:31;;;;;;;12.88;2.80;;;13.10;99.90;;;;;;6306143;22;20011;-85
2021/10/11 10:19:17;;;;;;;11.77;3.88;;;12.70;99.90;;;;;;5948619;24;20173;-85
2021/10/11 10:39:53;;;;;;;;;;;;;;;;;;;;;
2021/10/11 10:43:21;;;;;;;9.40;3.00;;;12.60;99.90;;;;;;5986311;23;20021;-86
2021/10/11 10:52:11;;;;;;;;;;;;;;;;;;;;;
2021/10/11 11:09:39;;;;;;;;;;;;;;;;;;;;;
2021/10/11 11:13:42;;;;;;;;;;;;;;;;;;;;;
2021/10/11 11:22:19;;;;;;;;;;;;;;;;;;;;;
2021/10/11 11:27:29;;;;;;;12.57;4.35;;;13.40;99.90;;;;;;6056971;23;20029;-85
2021/10/11 11:42:32;;;;;;;19.05;4.10;;;13.90;99.90;;;;;;5109116;27;20168;-84
2021/10/11 11:45:04;;;;;;;12.68;4.25;;;14.10;99.90;;;;;;5063480;28;20033;-88
2021/10/11 11:47:32;;;;;;;19.77;2.85;;;14.20;99.90;;;;;;5073530;28;20056;-84
2021/10/11 11:50:00;;;;;;;10.93;3.45;;;14.30;99.90;;;;;;5094146;28;20048;-85
2021/10/11 11:52:33;;;;;;;14.43;3.08;;;14.30;99.90;;;;;;5064257;28;20554;-84
2021/10/11 11:55:08;;;;;;;17.08;3.20;;;14.30;99.90;;;;;;5024084;28;20053;-89
2021/10/11 11:57:44;;;;;;;22.30;4.90;;;14.30;99.90;;;;;;5030749;28;20523;-87
2021/10/11 12:00:21;;;;;;;16.33;3.50;;;14.30;99.90;;;;;;5054433;28;20053;-85
2021/10/11 12:02:50;;;;;;;10.35;3.20;;;14.30;99.90;;;;;;5049976;28;20056;-88
2021/10/11 12:05:18;;;;;;;15.50;3.47;;;14.40;99.90;;;;;;5071536;28;20052;-86
2021/10/11 12:07:46;;;;;;;16.00;3.10;;;14.50;99.90;;;;;;5051935;28;20049;-87
2021/10/11 12:10:23;;;;;;;10.50;3.10;;;14.50;99.90;;;;;;5040157;28;20056;-87
2021/10/11 12:13:05;;;;;;;10.68;3.60;;;14.60;99.90;;;;;;5039724;28;20044;-83
2021/10/11 12:15:36;;;;;;;10.05;4.35;;;14.60;99.90;;;;;;5066874;28;20060;-84
2021/10/11 12:18:12;;;;;;;13.70;4.30;;;14.70;99.90;;;;;;5037371;28;20053;-84
2021/10/11 12:20:50;;;;;;;17.05;2.65;;;14.70;99.90;;;;;;5053694;28;20052;-85
2021/10/11 12:23:18;;;;;;;14.57;3.50;;;15.00;99.90;;;;;;5050527;28;20139;-86
2021/10/11 12:25:47;;;;;;;13.02;3.45;;;14.80;99.90;;;;;;5072056;28;20048;-84
2021/10/11 12:28:19;;;;;;;13.75;3.58;;;14.90;99.90;;;;;;5041493;28;20048;-89
2021/10/11 12:30:49;;;;;;;14.13;3.92;;;14.90;99.90;;;;;;5028776;28;20059;-89
2021/10/11 12:33:21;;;;;;;6.55;2.80;;;15.00;99.90;;;;;;5058639;28;20051;-85
2021/10/11 12:36:00;;;;;;;10.93;2.83;;;15.00;99.90;;;;;;5043621;28;20051;-87
2021/10/11 12:38:40;;;;;;;8.55;2.60;;;15.10;99.90;;;;;;5040172;28;20055;-86
2021/10/11 12:41:18;;;;;;;14.70;2.83;;;15.20;99.90;;;;;;5037271;28;20052;-88
2021/10/11 12:43:57;;;;;;;9.77;2.80;;;15.20;99.90;;;;;;5060706;28;20053;-91
2021/10/11 12:46:28;;;;;;;9.82;2.72;;;15.20;99.90;;;;;;5062072;28;20068;-87
2021/10/11 12:49:08;;;;;;;13.80;3.50;;;15.30;99.90;;;;;;5065616;28;20052;-86
2021/10/11 12:51:38;;;;;;;12.85;2.53;;;15.30;99.90;;;;;;5066533;28;20060;-85
2021/10/11 12:54:12;;;;;;;14.10;3.15;;;15.40;99.90;;;;;;5051507;28;20041;-91
2021/10/11 12:56:50;;;;;;;9.13;2.42;;;15.40;99.90;;;;;;5041528;28;20112;-88
2021/10/11 12:59:20;;;;;;;15.07;3.20;;;15.40;99.90;;;;;;5057635;28;20480;-87
2021/10/11 13:01:49;;;;;;;11.40;2.20;;;15.40;99.90;;;;;;5043337;28;20048;-86
2021/10/11 13:04:23;;;;;;;8.38;2.70;;;15.40;99.90;;;;;;5042576;28;20045;-87
2021/10/11 13:07:00;;;;;;;10.80;2.38;;;15.40;99.90;;;;;;5027734;28;20420;-87
2021/10/11 13:09:30;;;;;;;5.40;2.28;;;15.40;99.90;;;;;;5041986;28;20224;-83
2021/10/11 13:12:03;;;;;;;9.48;2.65;;;15.40;99.90;;;;;;5040812;28;20052;-88
2021/10/11 13:14:32;;;;;;;11.27;3.97;;;15.40;99.90;;;;;;5027332;28;20492;-85
2021/10/11 13:17:01;;;;;;;11.43;2.67;;;15.50;99.90;;;;;;5020546;28;20053;-85
2021/10/11 13:19:35;;;;;;;20.05;2.50;;;15.50;99.90;;;;;;5035934;28;20044;-84
2021/10/11 13:22:03;;;;;;;16.52;3.08;;;15.50;99.90;;;;;;5055637;28;20056;-88
2021/10/11 13:24:47;;;;;;;11.27;2.80;;;15.50;99.90;;;;;;5049389;28;20056;-89
2021/10/11 13:27:19;;;;;;;13.23;3.15;;;15.50;99.80;;;;;;5042146;28;20048;-89
2021/10/11 13:33:39;;;;;;;17.52;3.42;;;15.40;99.90;;;;;;5053380;28;20056;-87
2021/10/11 13:36:23;;;;;;;13.27;2.50;;;15.50;99.90;;;;;;5028357;28;20516;-89
2021/10/11 14:27:56;;;;;;;12.95;2.53;;;16.20;99.20;;;;;;5044426;28;20052;-87
2021/10/11 15:59:59;;;;;;;7.10;1.65;;;18.40;94.20;;;;;;5049303;28;20041;-85
2021/10/11 16:02:37;;;;;;;8.35;1.63;;;18.10;94.60;;;;;;5032145;28;20103;-86
2021/10/11 16:05:06;;;;;;;7.80;1.92;;;17.90;94.70;;;;;;5036653;28;20040;-84
2021/10/11 16:07:33;;;;;;;9.27;1.83;;;17.70;95.00;;;;;;5048112;28;20049;-85
2021/10/11 16:10:01;;;;;;;14.63;2.38;;;17.60;95.20;;;;;;5027012;28;20045;-83
2021/10/11 16:12:30;;;;;;;12.55;1.75;;;17.40;95.20;;;;;;5039515;28;20069;-84
2021/10/11 16:15:00;;;;;;;7.10;1.80;;;17.30;95.30;;;;;;5040357;28;21771;-84
2021/10/11 16:17:48;;;;;;;8.93;1.63;;;17.10;95.40;;;;;;5038427;28;20385;-88
2021/10/11 16:20:16;;;;;;;11.43;2.25;;;17.10;95.70;;;;;;5042880;28;20496;-84
2021/10/11 16:22:44;;;;;;;9.48;2.22;;;16.80;95.70;;;;;;5043180;28;20057;-85
2021/10/11 16:25:19;;;;;;;8.13;2.33;;;16.70;95.80;;;;;;5044760;28;20053;-86
2021/10/11 16:27:48;;;;;;;6.28;2.45;;;16.60;96.00;;;;;;5053802;28;20492;-86
2021/10/11 16:30:17;;;;;;;7.80;1.80;;;16.50;96.20;;;;;;5037643;28;20056;-86
2021/10/11 16:32:47;;;;;;;5.68;2.13;;;16.40;96.30;;;;;;5052261;28;20469;-87
2021/10/11 16:35:16;;;;;;;14.23;2.28;;;16.30;96.70;;;;;;5057517;28;20383;-88
2021/10/11 16:37:45;;;;;;;9.82;1.85;;;16.20;96.50;;;;;;5050065;28;20072;-87
2021/10/11 16:40:14;;;;;;;9.95;2.30;;;16.10;96.60;;;;;;5020592;28;20064;-87
2021/10/11 16:42:42;;;;;;;10.63;2.22;;;16.00;96.60;;;;;;5053626;28;20053;-85
2021/10/11 16:45:12;;;;;;;6.80;1.60;;;15.90;96.70;;;;;;5052310;28;20041;-88
2021/10/11 16:47:41;;;;;;;10.00;2.10;;;15.80;96.80;;;;;;5038346;28;20041;-89
2021/10/11 16:50:11;;;;;;;9.73;2.22;;;15.70;96.90;;;;;;5028349;28;20045;-89
2021/10/11 16:52:43;;;;;;;16.23;3.15;;;15.60;97.10;;;;;;5040134;28;20065;-85
2021/10/11 16:55:15;;;;;;;12.82;2.30;;;15.60;97.20;;;;;;5052512;28;20048;-86
2021/10/11 16:57:49;;;;;;;7.15;2.10;;;15.50;97.40;;;;;;5033224;28;20087;-86
2021/10/11 17:00:17;;;;;;;7.05;1.40;;;15.40;97.50;;;;;;5050738;28;20057;-84
2021/10/11 17:02:46;;;;;;;8.45;1.90;;;15.30;97.80;;;;;;5033296;28;20515;-85
2021/10/11 17:05:19;;;;;;;12.15;3.67;;;15.30;97.70;;;;;;5053655;28;20084;-87
2021/10/11 17:07:50;;;;;;;6.03;2.67;;;15.40;97.80;;;;;;5051503;28;20359;-90
2021/10/11 17:10:19;;;;;;;;;;;15.20;97.90;;;;;;5051381;28;20053;-88
2021/10/11 17:12:49;;;;;;;12.65;2.17;;;15.20;98.20;;;;;;5038681;28;19931;-84
2021/10/11 17:15:18;;;;;;;11.70;2.80;;;15.10;98.10;;;;;;5046608;28;20053;-89
2021/10/11 17:18:07;;;;;;;5.93;2.28;;;15.00;98.10;;;;;;5054378;28;20041;-88
2021/10/11 17:20:39;;;;;;;13.10;2.20;;;15.00;98.30;;;;;;5035806;28;20045;-87
2021/10/11 17:23:08;;;;;;;13.60;2.47;;;15.00;98.40;;;;;;5062376;28;20079;-86
2021/10/11 17:25:36;;;;;;;7.97;2.55;;;14.90;98.50;;;;;;5011124;28;20085;-87
2021/10/11 17:28:04;;;;;;;6.45;2.08;;;14.90;98.60;;;;;;5052303;28;20041;-86
2021/10/11 17:30:33;;;;;;;9.55;2.55;;;14.90;98.70;;;;;;5037808;28;20048;-88
2021/10/11 17:33:04;;;;;;;10.82;2.92;;;14.90;98.70;;;;;;5025095;28;20049;-90
2021/10/11 17:35:32;;;;;;;14.55;2.40;;;14.90;98.80;;;;;;5044605;28;20078;-86
2021/10/11 17:38:02;;;;;;;5.50;2.28;;;14.80;98.80;;;;;;5025991;28;20045;-88
2021/10/11 17:40:33;;;;;;;16.27;3.63;;;14.80;99.00;;;;;;5051373;28;20048;-88
2021/10/11 17:43:02;;;;;;;8.02;2.15;;;14.80;99.20;;;;;;5041532;28;20614;-88
2021/10/11 17:45:32;;;;;;;14.80;4.18;;;14.80;99.20;;;;;;4990288;28;20053;-86
2021/10/11 17:48:02;;;;;;;8.40;3.45;;;14.80;99.50;;;;;;5003685;28;20053;-88
2021/10/11 17:50:59;;;;;;;16.40;3.03;;;14.70;99.90;;;;;;5005627;28;20411;-87
2021/10/11 17:53:28;;;;;;;14.32;3.75;;;14.70;99.90;;;;;;5024620;28;20037;-87
2021/10/11 17:56:04;;;;;;;9.23;2.95;;;14.60;99.90;;;;;;5010022;28;20059;-87
2021/10/11 17:58:40;;;;;;;11.80;3.42;;;14.50;99.90;;;;;;5029996;28;20045;-86
2021/10/11 18:01:11;;;;;;;16.20;4.18;;;14.40;99.90;;;;;;5009188;28;20049;-83
2021/10/11 18:03:44;;;;;;;20.10;4.65;;;14.20;99.90;;;;;;5007176;28;20033;-86
2021/10/11 18:06:15;;;;;;;19.58;4.53;;;14.10;99.90;;;;;;5015632;28;20056;-90
2021/10/11 18:08:46;;;;;;;12.52;3.58;;;14.00;99.90;;;;;;5018346;28;20059;-88
2021/10/11 18:11:19;;;;;;;16.40;3.47;;;13.80;99.90;;;;;;5012257;28;20061;-88
2021/10/11 18:13:50;;;;;;;17.33;5.20;;;13.70;99.90;;;;;;5024030;28;20041;-89
2021/10/11 18:16:19;;;;;;;12.50;3.72;;;13.60;99.90;;;;;;5017322;28;20073;-89
2021/10/11 18:18:49;;;;;;;14.63;3.80;;;12.80;99.90;;;;;;5017743;28;20555;-90
2021/10/11 18:21:18;;;;;;;14.43;4.65;;;13.40;99.90;;;;;;5032286;28;20472;-88
2021/10/11 18:23:46;;;;;;;13.55;4.32;;;13.30;99.90;;;;;;4989937;28;20053;-91
2021/10/11 18:26:15;;;;;;;19.30;5.65;;;13.10;99.90;;;;;;5040467;28;20057;-90
2021/10/11 18:28:42;;;;;;;11.38;4.00;;;13.10;99.90;;;;;;5007899;28;20084;-88
2021/10/11 18:31:11;;;;;;;14.35;5.13;;;13.00;99.90;;;;;;4988504;28;20046;-90
2021/10/11 18:33:39;;;;;;;14.73;4.57;;;12.80;99.90;;;;;;5017610;28;20057;-89
2021/10/11 18:36:13;;;;;;;14.15;3.63;;;12.80;99.90;;;;;;5008378;28;20045;-89
2021/10/11 18:38:46;;;;;;;11.80;4.10;;;12.70;99.90;;;;;;5029368;28;20400;-89
2021/10/11 18:41:21;;;;;;;10.70;4.15;;;12.60;99.90;;;;;;5022567;28;20053;-88
2021/10/11 18:43:52;;;;;;;13.27;5.53;;;12.50;99.90;;;;;;5037548;28;20056;-86
2021/10/11 18:46:20;;;;;;;19.42;5.65;;;12.40;99.90;;;;;;5049118;28;20059;-87
2021/10/11 18:48:51;;;;;;;20.88;5.28;;;12.40;99.90;;;;;;5040288;28;20053;-90
2021/10/11 18:51:23;;;;;;;;;;;12.30;99.90;;;;;;5058038;28;20049;-87
2021/10/11 18:53:51;;;;;;;21.58;7.20;;;12.20;99.90;;;;;;5064993;28;19944;-86
2021/10/11 18:56:21;;;;;;;14.07;4.25;;;12.20;99.90;;;;;;5057092;28;20461;-91
2021/10/11 18:58:49;;;;;;;14.40;4.97;;;12.10;99.90;;;;;;5043086;28;20053;-92
2021/10/11 19:01:21;;;;;;;15.38;4.80;;;12.00;99.90;;;;;;5045429;28;20045;-90
2021/10/11 19:03:59;;;;;;;15.57;5.20;;;12.00;99.90;;;;;;5056927;28;20056;-87
2021/10/11 19:06:27;;;;;;;14.77;4.95;;;11.90;99.90;;;;;;5012064;28;20057;-87
2021/10/11 19:08:59;;;;;;;20.92;7.75;;;11.90;99.90;;;;;;5054274;28;20056;-93
2021/10/11 19:11:39;;;;;;;14.02;4.97;;;11.80;99.90;;;;;;5049780;28;20053;-85
2021/10/11 19:14:11;;;;;;;13.95;6.40;;;11.80;99.90;;;;;;5067239;28;20051;-85
2021/10/11 19:16:41;;;;;;;16.15;5.65;;;11.70;99.90;;;;;;5047045;28;20033;-93
2021/10/11 19:19:16;;;;;;;12.65;5.72;;;11.70;99.90;;;;;;5047069;28;20052;-86
2021/10/11 19:22:01;;;;;;;24.02;6.32;;;11.70;99.90;;;;;;5066436;28;20052;-85
2021/10/11 19:24:39;;;;;;;25.38;8.43;;;11.60;99.90;;;;;;5053202;28;20064;-88
2021/10/11 19:27:11;;;;;;;18.85;8.23;;;11.60;99.90;;;;;;5056283;28;20048;-93
2021/10/11 19:29:44;;;;;;;24.48;8.75;;;11.50;99.90;;;;;;5061163;28;20043;-91
2021/10/11 19:32:13;;;;;;;27.13;7.63;;;11.50;99.90;;;;;;5030826;28;20045;-88
2021/10/11 19:34:45;;;;;;;24.45;6.68;;;11.50;99.90;;;;;;5042970;28;20041;-92
2021/10/11 19:37:13;;;;;;;24.70;6.90;;;11.50;99.90;;;;;;5026927;28;20048;-93
2021/10/11 19:39:52;;;;;;;15.38;6.05;;;11.50;99.90;;;;;;5028428;28;20033;-90
2021/10/11 19:42:20;;;;;;;13.70;4.90;;;11.40;99.90;;;;;;5046715;28;20177;-91
2021/10/11 19:44:48;;;;;;;19.30;5.63;;;11.40;99.90;;;;;;5065312;28;20059;-90
2021/10/11 19:47:20;;;;;;;22.35;6.63;;;11.30;99.90;;;;;;5066445;28;20048;-86
2021/10/11 19:49:53;;;;;;;13.20;5.13;;;11.30;99.90;;;;;;5046838;28;20056;-90
2021/10/11 19:52:41;;;;;;;12.02;4.97;;;11.30;99.90;;;;;;5062854;28;20045;-91
2021/10/11 19:55:13;;;;;;;17.55;6.10;;;11.30;99.90;;;;;;5049512;28;20103;-87
2021/10/11 19:57:42;;;;;;;15.38;6.22;;;11.30;99.90;;;;;;5050920;28;20053;-88
2021/10/11 20:00:12;;;;;;;12.60;5.30;;;10.80;99.90;;;;;;5032670;28;20029;-91
2021/10/11 20:02:43;;;;;;;19.02;6.28;;;11.20;99.90;;;;;;5057023;28;20071;-89
2021/10/11 20:05:12;;;;;;;16.10;7.00;;;11.20;99.90;;;;;;5066872;28;20049;-91
2021/10/11 20:07:40;;;;;;;17.73;6.28;;;11.20;99.90;;;;;;5043966;28;20053;-90
2021/10/11 20:10:09;;;;;;;18.75;6.18;;;11.20;99.90;;;;;;5031350;28;20049;-89
2021/10/11 20:12:43;;;;;;;22.88;8.70;;;11.30;99.90;;;;;;5044020;28;20049;-87
2021/10/11 20:15:16;;;;;;;18.33;6.22;;;11.20;99.90;;;;;;5072320;28;20149;-89
2021/10/11 20:17:46;;;;;;;20.17;7.15;;;11.20;99.90;;;;;;5057561;28;20037;-91
2021/10/11 20:20:23;;;;;;;23.20;5.40;;;11.20;99.90;;;;;;5050077;28;20301;-85
2021/10/11 20:23:00;;;;;;;21.27;6.15;;;11.20;99.90;;;;;;5040997;28;20067;-90
2021/10/11 20:25:58;;;;;;;18.67;6.10;;;11.20;99.90;;;;;;5069930;28;20059;-89
2021/10/11 20:28:42;;;;;;;23.35;6.93;;;11.20;99.90;;;;;;5048527;28;20041;-86
2021/10/11 20:31:12;;;;;;;23.90;7.63;;;11.20;99.90;;;;;;5041383;28;20443;-91
2021/10/11 20:33:43;;;;;;;21.38;7.50;;;11.20;99.90;;;;;;5079001;28;20045;-87
2021/10/11 20:36:12;;;;;;;;;;;11.20;99.90;;;;;;5062748;28;20510;-89
2021/10/11 20:38:47;;;;;;;21.00;6.43;;;11.20;99.90;;;;;;5061652;28;19924;-93
2021/10/11 20:41:15;;;;;;;26.35;8.13;;;11.20;99.90;;;;;;5054318;28;20053;-91
2021/10/11 20:43:45;;;;;;;16.98;7.03;;;11.20;99.90;;;;;;5034687;28;20037;-88
2021/10/11 20:46:14;;;;;;;21.25;7.28;;;11.20;99.90;;;;;;5071077;28;20063;-88
2021/10/11 20:48:43;;;;;;;24.23;8.15;;;11.20;99.90;;;;;;5050482;28;20045;-88
2021/10/11 20:51:12;;;;;;;20.10;6.40;;;11.30;99.90;;;;;;5051334;28;20057;-87
2021/10/11 20:53:40;;;;;;;20.52;7.00;;;11.30;99.90;;;;;;5066076;28;20568;-92
2021/10/11 20:56:14;;;;;;;19.92;7.03;;;11.30;99.90;;;;;;5039606;28;20041;-92
2021/10/11 20:58:43;;;;;;;15.55;7.90;;;11.40;99.90;;;;;;5070548;28;20043;-86
2021/10/11 21:01:17;;;;;;;20.20;7.28;;;10.90;99.90;;;;;;5069293;28;20041;-92
2021/10/11 21:03:47;;;;;;;17.40;7.60;;;11.30;99.90;;;;;;5053331;28;20025;-85
2021/10/11 21:06:17;;;;;;;34.93;9.90;;;11.30;99.90;;;;;;5069192;28;20040;-92
2021/10/11 21:09:03;;;;;;;24.80;8.85;;;11.20;99.90;;;;;;5070044;28;20488;-90
2021/10/11 21:11:33;;;;;;;22.88;8.32;;;11.20;99.90;;;;;;5070905;28;20116;-93
2021/10/11 21:14:02;;;;;;;21.58;7.50;;;11.10;99.90;;;;;;5070261;28;20045;-86
2021/10/11 21:16:47;;;;;;;18.48;7.68;;;11.00;99.90;;;;;;5036849;28;20071;-87
2021/10/11 21:19:18;;;;;;;17.27;6.97;;;11.00;99.90;;;;;;5073690;28;20061;-89
2021/10/11 21:21:54;;;;;;;26.67;10.18;;;10.80;99.90;;;;;;5056211;28;20041;-89
2021/10/11 21:24:35;;;;;;;25.42;8.93;;;10.90;99.90;;;;;;5071867;28;20053;-89
2021/10/11 21:27:10;;;;;;;25.45;12.43;;;10.90;99.90;;;;;;5063320;28;20065;-87
2021/10/11 21:29:42;;;;;;;24.10;10.13;;;10.90;99.90;;;;;;5019603;28;20049;-87
2021/10/11 21:32:14;;;;;;;28.88;8.23;;;11.30;99.90;;;;;;5054997;28;20032;-85
2021/10/11 21:34:44;;;;;;;22.33;9.20;;;10.90;99.90;;;;;;5071899;28;20052;-89
2021/10/11 21:37:18;;;;;;;30.52;11.90;;;10.90;99.90;;;;;;5047764;28;20046;-89
2021/10/11 21:39:46;;;;;;;17.17;8.35;;;10.90;99.90;;;;;;5047110;28;20275;-86
2021/10/11 21:42:16;;;;;;;27.13;10.87;;;10.90;99.90;;;;;;5040348;28;20059;-87
2021/10/11 21:44:47;;;;;;;32.83;9.85;;;10.90;99.90;;;;;;5071958;28;20298;-90
2021/10/11 21:47:21;;;;;;;24.95;10.20;;;10.90;99.90;;;;;;5052005;28;20055;-86
2021/10/11 21:50:04;;;;;;;20.08;8.75;;;10.90;99.90;;;;;;5072092;28;20029;-86
2021/10/11 21:53:25;;;;;;;21.40;9.75;;;10.90;99.90;;;;;;5072535;28;20044;-91
2021/10/11 21:56:05;;;;;;;20.30;8.73;;;11.00;99.90;;;;;;5072727;28;20037;-89
2021/10/11 21:58:39;;;;;;;29.40;10.45;;;10.90;99.90;;;;;;5034516;28;20056;-91
2021/10/11 22:01:15;;;;;;;27.85;9.73;;;10.90;99.90;;;;;;5052249;28;20059;-86
2021/10/11 22:04:11;;;;;;;20.42;9.02;;;10.90;99.90;;;;;;5070213;28;20029;-92
2021/10/11 22:06:39;;;;;;;24.98;9.23;;;10.90;99.90;;;;;;5053679;28;20045;-89
2021/10/11 22:09:17;;;;;;;25.27;10.25;;;10.90;99.90;;;;;;5043268;28;20061;-88
2021/10/11 22:11:45;;;;;;;27.65;11.48;;;11.00;99.90;;;;;;5056783;28;20139;-85
2021/10/11 22:14:16;;;;;;;20.45;10.02;;;10.80;99.90;;;;;;5036349;28;20045;-86
2021/10/11 22:17:00;;;;;;;26.48;9.65;;;9.60;99.90;;;;;;5062325;28;20049;-85
2021/10/11 22:19:29;;;;;;;26.00;10.88;;;10.80;99.90;;;;;;5053570;28;20047;-87
2021/10/11 22:21:59;;;;;;;23.45;11.02;;;10.80;99.90;;;;;;5068280;28;20036;-88
2021/10/11 22:24:31;;;;;;;26.70;11.20;;;10.80;99.90;;;;;;5049445;28;20059;-85
2021/10/11 22:27:17;;;;;;;21.98;10.48;;;10.70;99.90;;;;;;5067517;28;20041;-86
2021/10/11 22:29:52;;;;;;;23.58;10.25;;;10.60;99.90;;;;;;5068299;28;20045;-90
2021/10/11 22:32:28;;;;;;;26.45;10.48;;;10.80;99.90;;;;;;5054320;28;20041;-87
2021/10/11 22:34:59;;;;;;;28.23;10.05;;;10.60;99.90;;;;;;5071276;28;20056;-90
2021/10/11 22:43:47;;;;;;;21.40;10.65;;;10.50;99.90;;;;;;4991341;28;20490;-86
2021/10/11 22:47:13;;;;;;;;;;;;;;;;;;;;;
2021/10/11 22:54:11;;;;;;;25.35;12.07;;;10.40;99.90;;;;;;4968239;28;20054;-86
2021/10/11 22:57:03;;;;;;;21.40;12.95;;;9.60;99.90;;;;;;4936682;28;20051;-88
2021/10/11 23:00:39;;;;;;;27.98;11.40;;;10.30;99.90;;;;;;4919379;29;20055;-85
2021/10/11 23:03:40;;;;;;;22.88;10.35;;;10.20;99.90;;;;;;4875903;29;20056;-85
2021/10/11 23:10:23;;;;;;;22.25;10.85;;;10.20;99.90;;;;;;4995332;28;20043;-88
2021/10/11 23:13:42;;;;;;;30.48;11.98;;;10.30;99.90;;;;;;5003691;28;20070;-87
2021/10/11 23:16:43;;;;;;;27.20;11.23;;;10.30;99.90;;;;;;4968241;28;20062;-87
2021/10/11 23:19:18;;;;;;;30.33;12.90;;;10.30;99.90;;;;;;4948708;29;20047;-89
2021/10/11 23:21:49;;;;;;;28.88;11.43;;;10.30;99.90;;;;;;4968152;28;20059;-91